Time;durP1;ratioP1;P1;durP2;ratioP2;P2;SDS_P1;SDS_P2;PMS_P1;PMS_P2;Temp;Humidity;BMP_temperature;BMP_pressure;BME280_temperature;BME280_humidity;BME280_pressure;Samples;Min_cycle;Max_cycle;Signal;HPM_P1;HPM_P2
2021/05/01 00:03:14;;;;;;;52.60;33.75;;;6.60;99.90;;;;;;12255472;28;20444;-79
2021/05/01 00:09:16;;;;;;;54.95;33.50;;;6.60;99.90;;;;;;12271149;28;20138;-78
2021/05/01 00:15:17;;;;;;;51.58;33.13;;;6.60;99.90;;;;;;12261951;28;20040;-78
2021/05/01 00:21:19;;;;;;;58.63;35.22;;;6.40;99.90;;;;;;12267215;28;20051;-79
2021/05/01 00:27:20;;;;;;;56.05;34.03;;;6.20;99.90;;;;;;12262494;28;20040;-78
2021/05/01 00:33:21;;;;;;;56.40;33.08;;;6.10;99.90;;;;;;12273637;28;20093;-78
2021/05/01 00:39:22;;;;;;;52.00;33.85;;;6.10;99.90;;;;;;12270824;28;20054;-79
2021/05/01 00:45:24;;;;;;;64.45;38.13;;;5.80;99.90;;;;;;12261534;28;20554;-79
2021/05/01 00:51:25;;;;;;;58.80;36.40;;;5.70;99.90;;;;;;12255188;28;20131;-78
2021/05/01 00:57:27;;;;;;;57.70;36.35;;;5.70;99.90;;;;;;12260060;28;20092;-78
2021/05/01 01:03:30;;;;;;;57.40;36.78;;;5.90;99.90;;;;;;12257470;28;21565;-78
2021/05/01 01:09:31;;;;;;;53.72;35.58;;;6.00;99.90;;;;;;12269734;28;20090;-78
2021/05/01 01:15:33;;;;;;;56.03;36.25;;;6.10;99.90;;;;;;12265762;28;20407;-78
2021/05/01 01:21:48;;;;;;;58.63;37.72;;;6.00;99.90;;;;;;12267067;28;20071;-78
2021/05/01 01:27:50;;;;;;;56.83;35.40;;;5.90;99.90;;;;;;12276997;28;20047;-78
2021/05/01 01:33:51;;;;;;;54.22;34.97;;;5.70;99.90;;;;;;12289963;28;20048;-78
2021/05/01 01:39:53;;;;;;;49.25;33.40;;;5.50;99.90;;;;;;12274254;28;20118;-78
2021/05/01 01:45:54;;;;;;;55.97;35.33;;;5.60;99.90;;;;;;12265168;28;20047;-78
2021/05/01 01:51:55;;;;;;;50.92;33.53;;;5.60;99.90;;;;;;12258290;28;20193;-78
2021/05/01 01:57:56;;;;;;;51.30;34.20;;;5.60;99.90;;;;;;12257421;28;20082;-78
2021/05/01 02:03:58;;;;;;;50.38;32.53;;;5.70;99.90;;;;;;12261645;28;20055;-78
2021/05/01 02:09:59;;;;;;;48.85;33.33;;;5.80;99.90;;;;;;12259607;28;20142;-78
2021/05/01 02:16:00;;;;;;;54.13;34.30;;;5.40;99.90;;;;;;12257348;28;20063;-79
2021/05/01 02:22:02;;;;;;;53.70;34.03;;;5.20;99.90;;;;;;12261182;28;20071;-78
2021/05/01 02:28:04;;;;;;;54.58;34.60;;;5.20;99.90;;;;;;12311527;28;20070;-78
2021/05/01 02:34:06;;;;;;;55.45;34.80;;;5.10;99.90;;;;;;12312809;28;20089;-78
2021/05/01 02:40:09;;;;;;;60.42;36.78;;;5.40;99.90;;;;;;12309250;28;20069;-78
2021/05/01 02:46:10;;;;;;;61.08;37.20;;;5.60;99.90;;;;;;12258968;28;20114;-78
2021/05/01 02:52:12;;;;;;;55.08;35.00;;;5.60;99.90;;;;;;12257083;28;20134;-78
2021/05/01 02:58:13;;;;;;;49.28;33.08;;;5.40;99.90;;;;;;12257280;28;20749;-78
2021/05/01 03:04:14;;;;;;;44.40;30.35;;;5.30;99.90;;;;;;12255784;28;20460;-78
2021/05/01 03:10:24;;;;;;;49.38;32.55;;;4.80;99.90;;;;;;12260889;28;20043;-78
2021/05/01 03:16:26;;;;;;;49.50;30.80;;;4.50;99.90;;;;;;12244065;28;20762;-78
2021/05/01 03:22:27;;;;;;;57.22;33.72;;;4.30;99.90;;;;;;12246082;28;20047;-78
2021/05/01 03:28:29;;;;;;;50.20;31.15;;;4.20;99.90;;;;;;12255213;28;20411;-78
2021/05/01 03:34:30;;;;;;;54.03;32.75;;;4.30;99.90;;;;;;12253270;28;20560;-78
2021/05/01 03:40:31;;;;;;;52.80;32.53;;;4.40;99.90;;;;;;12252421;28;20550;-78
2021/05/01 03:46:32;;;;;;;57.30;35.38;;;4.80;99.90;;;;;;12241168;28;20044;-78
2021/05/01 03:52:35;;;;;;;54.38;34.45;;;5.20;99.90;;;;;;12252649;28;20142;-78
2021/05/01 03:58:36;;;;;;;47.92;30.52;;;5.40;99.90;;;;;;12251795;28;20078;-78
2021/05/01 04:04:38;;;;;;;50.92;33.25;;;5.40;99.90;;;;;;12255594;28;20602;-78
2021/05/01 04:10:39;;;;;;;54.60;35.00;;;5.50;99.90;;;;;;12254645;28;20039;-78
2021/05/01 04:16:40;;;;;;;59.58;37.30;;;5.50;99.90;;;;;;12258004;28;20541;-77
2021/05/01 04:22:42;;;;;;;64.68;38.33;;;5.80;99.90;;;;;;12259322;28;20062;-78
2021/05/01 04:28:43;;;;;;;70.35;39.05;;;5.60;99.90;;;;;;12256032;28;20134;-78
2021/05/01 04:34:44;;;;;;;64.35;37.17;;;5.50;99.90;;;;;;12254516;28;20135;-78
2021/05/01 04:40:46;;;;;;;74.05;40.60;;;5.10;99.90;;;;;;12253034;28;20101;-78
2021/05/01 04:46:52;;;;;;;67.10;40.28;;;5.20;99.90;;;;;;12258775;28;20450;-78
2021/05/01 04:52:54;;;;;;;69.78;41.30;;;5.40;99.90;;;;;;12263485;28;20079;-79
2021/05/01 04:58:55;;;;;;;65.90;40.47;;;5.40;99.90;;;;;;12265470;28;20062;-79
2021/05/01 05:04:56;;;;;;;57.03;36.80;;;5.60;99.90;;;;;;12267589;28;20104;-79
2021/05/01 05:10:58;;;;;;;61.97;38.58;;;5.60;99.90;;;;;;12267727;28;20539;-79
2021/05/01 05:16:59;;;;;;;65.60;38.47;;;5.50;99.90;;;;;;12274428;28;20139;-79
2021/05/01 05:23:00;;;;;;;63.95;38.53;;;5.70;99.90;;;;;;12269181;28;20054;-79
2021/05/01 05:29:02;;;;;;;62.78;40.05;;;6.60;99.90;;;;;;12258690;28;20169;-79
2021/05/01 05:35:03;;;;;;;61.10;38.78;;;7.10;99.90;;;;;;12256961;28;20051;-79
2021/05/01 05:41:05;;;;;;;61.38;38.83;;;7.10;99.90;;;;;;12253305;28;20461;-79
2021/05/01 05:47:06;;;;;;;73.60;39.00;;;7.20;99.90;;;;;;12257467;28;20127;-79
2021/05/01 05:53:09;;;;;;;62.97;39.55;;;7.10;99.90;;;;;;12260261;28;20058;-79
2021/05/01 05:59:10;;;;;;;58.78;38.83;;;7.20;99.90;;;;;;12264114;28;20059;-79
2021/05/01 06:05:24;;;;;;;58.15;38.30;;;7.40;99.90;;;;;;12266634;28;20104;-79
2021/05/01 06:11:25;;;;;;;59.63;38.30;;;7.60;99.90;;;;;;12262831;28;20061;-79
2021/05/01 06:17:27;;;;;;;58.22;38.83;;;7.60;99.90;;;;;;12259376;28;20660;-79
2021/05/01 06:23:28;;;;;;;66.22;41.67;;;7.70;99.90;;;;;;12260915;28;20102;-79
2021/05/01 06:29:31;;;;;;;55.00;37.03;;;7.40;99.90;;;;;;12262068;28;20555;-79
2021/05/01 06:35:32;;;;;;;66.35;38.78;;;7.30;99.90;;;;;;12268434;28;20047;-80
2021/05/01 06:41:48;;;;;;;64.28;39.90;;;7.60;99.90;;;;;;12258184;28;20047;-79
2021/05/01 06:48:20;;;;;;;60.13;38.28;;;7.50;99.90;;;;;;12253869;28;20040;-81
2021/05/01 06:54:23;;;;;;;59.63;39.17;;;7.50;99.90;;;;;;12255822;28;20067;-79
2021/05/01 07:00:26;;;;;;;62.25;41.38;;;7.50;99.90;;;;;;12269346;28;20130;-79
2021/05/01 07:06:27;;;;;;;58.40;38.30;;;7.60;99.90;;;;;;12259854;28;20157;-79
2021/05/01 07:12:28;;;;;;;66.85;39.42;;;7.80;99.90;;;;;;12264948;28;20069;-79
2021/05/01 07:18:31;;;;;;;71.35;40.67;;;7.80;99.90;;;;;;12271859;28;20070;-79
2021/05/01 07:24:33;;;;;;;73.00;41.50;;;8.00;99.90;;;;;;12266252;28;20078;-79
2021/05/01 07:30:39;;;;;;;64.82;39.03;;;8.20;99.90;;;;;;12263981;28;20150;-79
2021/05/01 07:36:47;;;;;;;71.57;42.78;;;8.40;99.90;;;;;;12274792;28;20470;-80
2021/05/01 07:42:50;;;;;;;70.88;41.40;;;8.60;99.90;;;;;;12259647;28;20108;-79
2021/05/01 07:48:52;;;;;;;71.50;43.33;;;8.60;99.90;;;;;;12260775;28;20062;-79
2021/05/01 07:54:53;;;;;;;68.07;41.90;;;8.50;99.90;;;;;;12259956;28;20178;-79
2021/05/01 08:00:54;;;;;;;70.78;43.75;;;9.20;99.90;;;;;;12258089;28;20039;-80
2021/05/01 08:06:56;;;;;;;61.50;40.35;;;9.30;99.90;;;;;;12258584;28;20047;-79
2021/05/01 08:12:57;;;;;;;60.38;39.80;;;9.90;99.90;;;;;;12259831;28;20132;-80
2021/05/01 08:19:00;;;;;;;51.83;36.05;;;10.30;99.90;;;;;;12250374;28;20143;-79
2021/05/01 08:25:03;;;;;;;59.38;39.67;;;10.50;99.90;;;;;;12261602;28;20111;-79
2021/05/01 08:31:05;;;;;;;56.90;38.97;;;10.90;99.90;;;;;;12268353;28;20823;-79
2021/05/01 08:37:06;;;;;;;58.35;39.22;;;10.70;99.90;;;;;;12265148;28;20059;-79
2021/05/01 08:43:08;;;;;;;61.42;39.03;;;11.00;99.90;;;;;;12265043;28;20043;-79
2021/05/01 08:49:10;;;;;;;56.20;37.85;;;10.50;99.90;;;;;;12262212;28;20064;-79
2021/05/01 08:55:11;;;;;;;56.58;37.50;;;10.80;99.90;;;;;;12255892;28;20189;-79
2021/05/01 09:01:13;;;;;;;57.47;36.88;;;11.30;99.90;;;;;;12259090;28;20131;-80
2021/05/01 09:07:17;;;;;;;49.45;34.97;;;10.80;99.90;;;;;;12263753;28;20063;-79
2021/05/01 09:13:25;;;;;;;47.03;30.83;;;11.00;99.90;;;;;;12258347;28;20044;-79
2021/05/01 09:19:38;;;;;;;42.53;27.77;;;10.70;99.90;;;;;;12264043;28;20963;-79
2021/05/01 09:25:58;;;;;;;37.78;26.10;;;10.10;99.90;;;;;;12256758;28;20051;-79
2021/05/01 09:32:01;;;;;;;34.70;24.15;;;10.20;99.90;;;;;;12264946;28;20095;-79
2021/05/01 09:38:03;;;;;;;37.35;24.90;;;10.30;99.90;;;;;;12265978;28;20051;-79
2021/05/01 09:44:16;;;;;;;34.55;24.75;;;10.40;99.90;;;;;;12260059;28;20066;-79
2021/05/01 09:50:20;;;;;;;36.35;25.92;;;10.50;99.90;;;;;;12260138;28;20077;-79
2021/05/01 09:56:23;;;;;;;35.40;26.02;;;10.60;99.90;;;;;;12268513;28;20560;-80
2021/05/01 10:02:35;;;;;;;33.75;24.40;;;10.30;99.90;;;;;;12263407;28;20054;-80
2021/05/01 10:08:36;;;;;;;33.83;24.17;;;10.00;99.90;;;;;;12269525;28;20055;-79
2021/05/01 10:14:46;;;;;;;31.48;23.58;;;10.40;99.90;;;;;;12267219;28;20412;-79
2021/05/01 10:20:50;;;;;;;37.13;25.02;;;10.30;99.90;;;;;;12264564;28;20051;-79
2021/05/01 10:26:51;;;;;;;32.80;22.43;;;10.30;99.90;;;;;;12267060;28;20054;-80
2021/05/01 10:33:20;;;;;;;33.65;24.23;;;10.10;99.90;;;;;;12267421;28;20047;-79
2021/05/01 10:39:21;;;;;;;32.00;23.65;;;9.90;99.90;;;;;;12270349;28;20137;-80
2021/05/01 10:45:27;;;;;;;32.70;24.35;;;10.50;99.90;;;;;;12272386;28;20051;-79
2021/05/01 10:51:35;;;;;;;32.78;23.73;;;10.80;99.90;;;;;;12271036;28;20055;-79
2021/05/01 10:57:36;;;;;;;29.98;22.73;;;11.00;99.90;;;;;;12261197;28;20471;-79
2021/05/01 11:03:43;;;;;;;30.85;21.33;;;11.20;99.90;;;;;;12256099;28;20048;-80
2021/05/01 11:09:46;;;;;;;29.83;21.73;;;11.60;99.90;;;;;;12251551;28;20048;-81
2021/05/01 11:15:50;;;;;;;28.55;21.92;;;11.40;99.90;;;;;;12267602;28;20491;-80
2021/05/01 11:21:54;;;;;;;30.40;22.83;;;11.70;99.90;;;;;;12261174;28;20093;-80
2021/05/01 11:27:56;;;;;;;32.72;23.08;;;11.80;99.90;;;;;;12302693;28;20066;-79
2021/05/01 11:33:59;;;;;;;30.90;22.38;;;12.20;99.90;;;;;;12308924;28;20051;-80
2021/05/01 11:40:03;;;;;;;35.92;23.08;;;11.90;99.90;;;;;;12264610;28;20047;-79
2021/05/01 11:46:15;;;;;;;30.17;22.60;;;12.00;99.90;;;;;;12263586;28;20081;-80
2021/05/01 11:52:28;;;;;;;30.17;22.52;;;11.80;99.90;;;;;;12256072;28;20047;-80
2021/05/01 11:58:34;;;;;;;30.02;22.63;;;13.00;99.90;;;;;;12253119;28;20060;-79
2021/05/01 12:05:05;;;;;;;29.63;22.40;;;13.70;99.90;;;;;;12254803;28;20089;-80
2021/05/01 12:11:07;;;;;;;29.13;21.65;;;14.30;99.90;;;;;;12258178;28;20044;-80
2021/05/01 12:17:13;;;;;;;28.50;21.15;;;13.90;99.90;;;;;;12250871;28;20096;-80
2021/05/01 12:23:40;;;;;;;29.08;20.38;;;13.70;99.90;;;;;;12258059;28;20044;-80
2021/05/01 12:29:42;;;;;;;26.73;20.17;;;13.10;99.90;;;;;;12259343;28;20108;-80
2021/05/01 12:35:44;;;;;;;29.92;20.40;;;13.50;99.90;;;;;;12261431;28;20147;-80
2021/05/01 12:41:51;;;;;;;27.67;19.70;;;12.90;99.90;;;;;;12259901;28;20047;-80
2021/05/01 12:47:52;;;;;;;26.10;18.13;;;12.90;99.90;;;;;;12265498;28;20043;-79
2021/05/01 12:53:56;;;;;;;23.65;17.60;;;12.90;99.90;;;;;;12256239;28;20051;-79
2021/05/01 13:00:00;;;;;;;23.75;17.45;;;13.00;99.90;;;;;;12262586;28;20574;-79
2021/05/01 13:06:03;;;;;;;25.77;17.92;;;12.80;99.90;;;;;;12267075;28;20200;-80
2021/05/01 13:12:24;;;;;;;22.13;15.25;;;12.50;99.90;;;;;;12277473;28;20100;-80
2021/05/01 13:18:25;;;;;;;18.80;13.77;;;12.50;99.90;;;;;;12260941;28;20484;-80
2021/05/01 13:24:31;;;;;;;18.33;11.85;;;12.80;99.90;;;;;;12283897;28;20174;-79
2021/05/01 13:30:32;;;;;;;13.30;10.77;;;14.50;99.90;;;;;;12282605;28;20051;-80
2021/05/01 13:36:34;;;;;;;14.68;10.95;;;15.40;99.90;;;;;;12281978;28;20536;-80
2021/05/01 13:42:40;;;;;;;16.42;12.23;;;14.80;99.90;;;;;;12281761;28;20047;-80
2021/05/01 13:48:43;;;;;;;15.85;11.70;;;14.30;99.90;;;;;;12284000;28;20081;-80
2021/05/01 13:54:44;;;;;;;16.07;11.40;;;13.60;99.90;;;;;;12280971;28;20193;-79
2021/05/01 14:00:46;;;;;;;14.82;10.95;;;13.80;99.90;;;;;;12285593;28;20051;-80
2021/05/01 14:06:48;;;;;;;14.50;9.38;;;14.10;99.90;;;;;;12287298;28;20039;-80
2021/05/01 14:12:50;;;;;;;14.88;10.77;;;15.00;99.90;;;;;;12281027;28;20545;-79
2021/05/01 14:18:51;;;;;;;15.15;10.25;;;14.40;99.90;;;;;;12282130;28;20067;-79
2021/05/01 14:24:55;;;;;;;12.63;9.70;;;13.90;99.90;;;;;;12277074;28;20078;-80
2021/05/01 14:37:00;;;;;;;15.00;9.63;;;13.60;99.90;;;;;;12275804;28;20066;-79
2021/05/01 14:43:01;;;;;;;14.85;9.90;;;13.30;99.90;;;;;;12284404;28;20130;-80
2021/05/01 14:49:18;;;;;;;12.80;8.80;;;13.90;99.90;;;;;;12272755;28;20066;-79
2021/05/01 14:55:28;;;;;;;12.43;8.88;;;14.60;99.90;;;;;;12279474;28;20082;-79
2021/05/01 15:01:29;;;;;;;13.35;9.05;;;14.50;99.90;;;;;;12275098;28;20185;-80
2021/05/01 15:07:39;;;;;;;11.20;7.93;;;13.90;99.90;;;;;;12282390;28;20058;-79
2021/05/01 15:13:41;;;;;;;10.27;7.00;;;14.20;99.90;;;;;;12274766;28;20051;-79
2021/05/01 15:19:43;;;;;;;10.50;6.78;;;14.90;99.90;;;;;;12278448;28;20137;-79
2021/05/01 15:25:56;;;;;;;7.78;6.15;;;14.80;99.90;;;;;;12281221;28;20109;-79
2021/05/01 15:31:57;;;;;;;9.80;6.32;;;15.30;99.90;;;;;;12277896;28;20138;-80
2021/05/01 15:38:00;;;;;;;8.23;6.15;;;15.00;99.90;;;;;;12280725;28;20055;-80
2021/05/01 15:44:01;;;;;;;10.15;6.60;;;15.20;99.90;;;;;;12276856;28;20059;-79
2021/05/01 15:50:04;;;;;;;11.02;7.32;;;14.90;99.90;;;;;;12287569;28;20088;-79
2021/05/01 15:56:05;;;;;;;11.98;7.20;;;14.30;99.90;;;;;;12279418;28;20142;-80
2021/05/01 16:02:07;;;;;;;9.77;7.30;;;14.50;99.90;;;;;;12275536;28;20440;-80
2021/05/01 16:08:10;;;;;;;9.48;5.95;;;14.80;99.90;;;;;;12279755;28;20047;-80
2021/05/01 16:14:12;;;;;;;9.57;7.28;;;14.40;99.90;;;;;;12275918;28;20047;-79
2021/05/01 16:20:16;;;;;;;11.10;6.03;;;14.40;99.90;;;;;;12273666;28;20052;-80
2021/05/01 16:26:17;;;;;;;10.63;6.95;;;14.40;99.90;;;;;;12276706;28;20051;-79
2021/05/01 16:32:20;;;;;;;8.77;5.55;;;14.20;99.90;;;;;;12294122;28;20570;-80
2021/05/01 16:38:22;;;;;;;10.43;6.07;;;13.50;99.90;;;;;;12268977;28;20051;-80
2021/05/01 16:44:28;;;;;;;7.80;5.53;;;13.40;99.90;;;;;;12280869;28;20051;-80
2021/05/01 16:50:30;;;;;;;9.75;5.78;;;13.40;99.90;;;;;;12278294;28;20051;-80
2021/05/01 16:56:31;;;;;;;8.93;5.97;;;13.40;99.90;;;;;;12291079;28;20410;-79
2021/05/01 17:02:33;;;;;;;9.30;5.35;;;13.60;99.90;;;;;;12291381;28;20043;-80
2021/05/01 17:08:34;;;;;;;8.38;5.10;;;13.40;99.90;;;;;;12287936;28;20051;-80
2021/05/01 17:14:36;;;;;;;8.07;5.00;;;13.20;99.90;;;;;;12304428;28;20166;-80
2021/05/01 17:20:38;;;;;;;7.70;4.82;;;13.10;99.90;;;;;;12275811;28;20476;-80
2021/05/01 17:26:40;;;;;;;6.97;5.20;;;13.70;99.90;;;;;;12297354;28;20044;-80
2021/05/01 17:32:41;;;;;;;7.55;4.75;;;14.60;99.90;;;;;;12295405;28;20128;-80
2021/05/01 17:38:45;;;;;;;9.52;4.93;;;14.60;99.90;;;;;;12319360;28;20058;-80
2021/05/01 17:44:46;;;;;;;8.10;4.70;;;14.30;99.90;;;;;;12304275;28;20398;-80
2021/05/01 17:50:47;;;;;;;6.15;4.43;;;13.90;99.90;;;;;;12275689;28;20509;-79
2021/05/01 17:56:50;;;;;;;5.78;4.43;;;13.40;99.90;;;;;;12285508;28;20047;-80
2021/05/01 18:02:52;;;;;;;7.75;4.57;;;13.00;99.90;;;;;;12277693;28;20407;-80
2021/05/01 18:08:53;;;;;;;8.88;4.40;;;12.80;99.90;;;;;;12272224;28;20543;-80
2021/05/01 18:14:54;;;;;;;9.70;4.10;;;12.60;99.90;;;;;;12278961;28;20111;-79
2021/05/01 18:20:56;;;;;;;8.52;4.38;;;12.50;99.90;;;;;;12282990;28;20194;-79
2021/05/01 18:26:57;;;;;;;6.93;4.57;;;12.40;99.90;;;;;;12278582;28;20054;-80
2021/05/01 18:32:59;;;;;;;7.88;4.32;;;12.20;99.90;;;;;;12279909;28;20071;-80
2021/05/01 18:39:01;;;;;;;7.43;4.50;;;11.90;99.90;;;;;;12278202;28;20047;-79
2021/05/01 18:45:05;;;;;;;6.70;4.20;;;11.70;99.90;;;;;;12287012;28;20074;-80
2021/05/01 18:51:07;;;;;;;7.50;4.03;;;11.60;99.90;;;;;;12278721;28;20094;-80
2021/05/01 18:57:08;;;;;;;6.95;4.82;;;11.30;99.90;;;;;;12279149;28;20146;-80
2021/05/01 19:03:11;;;;;;;7.22;4.88;;;11.10;99.90;;;;;;12278352;28;20058;-80
2021/05/01 19:09:13;;;;;;;9.05;4.63;;;10.90;99.90;;;;;;12274921;28;20134;-79
2021/05/01 19:15:14;;;;;;;7.40;4.85;;;10.80;99.90;;;;;;12281466;28;20043;-79
2021/05/01 19:21:17;;;;;;;9.60;5.28;;;10.60;99.90;;;;;;12279333;28;20453;-79
2021/05/01 19:27:18;;;;;;;8.75;5.53;;;10.40;99.90;;;;;;12287061;28;20134;-79
2021/05/01 19:33:21;;;;;;;11.75;5.40;;;10.30;99.90;;;;;;12282850;28;20108;-79
2021/05/01 19:39:22;;;;;;;13.10;5.85;;;10.20;99.90;;;;;;12274748;28;20159;-79
2021/05/01 19:45:25;;;;;;;8.43;5.32;;;10.30;99.90;;;;;;12280908;28;20050;-79
2021/05/01 19:51:27;;;;;;;11.30;6.60;;;10.10;99.90;;;;;;12278954;28;20403;-79
2021/05/01 19:57:28;;;;;;;9.27;5.97;;;9.90;99.90;;;;;;12282122;28;20085;-79
2021/05/01 20:03:30;;;;;;;14.27;6.82;;;9.70;99.90;;;;;;12281485;28;20197;-79
2021/05/01 20:09:35;;;;;;;9.80;6.93;;;9.60;99.90;;;;;;12289260;28;20174;-79
2021/05/01 20:15:39;;;;;;;9.77;6.95;;;9.30;99.90;;;;;;12287951;28;20598;-79
2021/05/01 20:21:40;;;;;;;11.10;7.63;;;9.30;99.90;;;;;;12287644;28;20039;-79
2021/05/01 20:27:41;;;;;;;11.80;7.60;;;9.40;99.90;;;;;;12280240;28;20550;-79
2021/05/01 20:33:43;;;;;;;9.75;6.82;;;9.70;99.90;;;;;;12285895;28;20131;-78
2021/05/01 20:39:44;;;;;;;11.88;6.55;;;9.70;99.90;;;;;;12286230;28;20085;-79
2021/05/01 20:45:45;;;;;;;13.32;7.32;;;9.70;99.90;;;;;;12292005;28;20134;-79
2021/05/01 20:51:47;;;;;;;9.65;7.32;;;9.50;99.90;;;;;;12283265;28;20197;-79
2021/05/01 20:57:48;;;;;;;10.32;6.82;;;9.30;99.90;;;;;;12299798;28;20157;-79
2021/05/01 21:03:51;;;;;;;12.18;7.18;;;9.20;99.90;;;;;;12281619;28;20048;-79
2021/05/01 21:09:52;;;;;;;10.70;6.57;;;9.20;99.90;;;;;;12274872;28;20130;-79
2021/05/01 21:15:53;;;;;;;11.25;7.07;;;9.10;99.90;;;;;;12272305;28;20778;-79
2021/05/01 21:21:54;;;;;;;8.07;6.47;;;8.90;99.90;;;;;;12272537;28;20515;-78
2021/05/01 21:27:56;;;;;;;10.10;7.07;;;8.80;99.90;;;;;;12283016;28;20126;-79
2021/05/01 21:33:57;;;;;;;8.18;6.40;;;8.80;99.90;;;;;;12285397;28;20138;-79
2021/05/01 21:39:59;;;;;;;10.75;6.95;;;8.80;99.90;;;;;;12278486;28;20668;-79
2021/05/01 21:46:00;;;;;;;11.32;7.55;;;8.80;99.90;;;;;;12277818;28;20039;-79
2021/05/01 21:52:05;;;;;;;11.00;7.18;;;8.70;99.90;;;;;;12281159;28;20071;-79
2021/05/01 21:58:07;;;;;;;8.68;6.50;;;8.50;99.90;;;;;;12281223;28;20095;-79
2021/05/01 22:04:09;;;;;;;7.93;6.50;;;8.60;99.90;;;;;;12280858;28;20043;-79
2021/05/01 22:10:10;;;;;;;10.80;6.65;;;8.50;99.90;;;;;;12280694;28;20047;-79
2021/05/01 22:16:12;;;;;;;7.07;5.82;;;8.40;99.90;;;;;;12288949;28;20043;-79
2021/05/01 22:22:20;;;;;;;9.98;6.65;;;8.50;99.90;;;;;;12279058;28;20070;-79
2021/05/01 22:28:21;;;;;;;11.95;7.90;;;8.60;99.90;;;;;;12283331;28;20571;-79
2021/05/01 22:34:23;;;;;;;9.82;7.43;;;8.10;99.90;;;;;;12279909;28;20047;-79
2021/05/01 22:40:24;;;;;;;9.57;7.85;;;8.00;99.90;;;;;;12277510;28;20043;-79
2021/05/01 22:46:29;;;;;;;11.50;7.70;;;7.80;99.90;;;;;;12287868;28;20128;-79
2021/05/01 22:52:32;;;;;;;8.98;7.00;;;7.80;99.90;;;;;;12290294;28;20421;-79
2021/05/01 22:58:34;;;;;;;10.65;7.45;;;7.90;99.90;;;;;;12290820;28;20109;-79
2021/05/01 23:04:36;;;;;;;10.50;7.93;;;7.90;99.90;;;;;;12292709;28;20126;-79
2021/05/01 23:10:38;;;;;;;10.38;7.85;;;7.90;99.90;;;;;;12284728;28;20127;-79
2021/05/01 23:16:40;;;;;;;10.68;7.88;;;8.00;99.90;;;;;;12294314;28;20692;-79
2021/05/01 23:22:44;;;;;;;10.57;6.95;;;7.80;99.90;;;;;;12283884;28;20051;-78
2021/05/01 23:28:46;;;;;;;9.43;7.17;;;7.80;99.90;;;;;;12292181;28;20111;-79
2021/05/01 23:34:48;;;;;;;9.82;7.82;;;7.70;99.90;;;;;;12297341;28;20053;-79
2021/05/01 23:40:49;;;;;;;10.55;7.93;;;7.80;99.90;;;;;;12298574;28;20121;-79
2021/05/01 23:46:51;;;;;;;10.27;7.32;;;7.80;99.90;;;;;;12289163;28;20055;-80
2021/05/01 23:52:57;;;;;;;8.85;6.75;;;7.70;99.90;;;;;;12278018;28;20051;-79
2021/05/01 23:58:59;;;;;;;9.32;7.43;;;7.80;99.90;;;;;;12277104;28;20047;-79
